Time;durP1;ratioP1;P1;durP2;ratioP2;P2;SDS_P1;SDS_P2;PMS_P1;PMS_P2;Temp;Humidity;BMP_temperature;BMP_pressure;BME280_temperature;BME280_humidity;BME280_pressure;Samples;Min_cycle;Max_cycle;Signal;HPM_P1;HPM_P2
2023/01/25 00:00:17;;;;;;;;;;;;;;;3.38;100.00;99553.56;5122772;28;19931;-63
2023/01/25 00:02:44;;;;;;;;;;;;;;;3.35;100.00;99554.72;5124447;28;19959;-63
2023/01/25 00:05:10;;;;;;;;;;;;;;;3.47;100.00;99545.38;5118184;28;19920;-63
2023/01/25 00:07:37;;;;;;;;;;;;;;;3.68;100.00;99558.75;5120844;28;19920;-62
2023/01/25 00:10:03;;;;;;;;;;;;;;;3.53;100.00;99549.16;5103325;28;20005;-61
2023/01/25 00:12:30;;;;;;;;;;;;;;;3.37;100.00;99546.66;5105674;28;19924;-63
2023/01/25 00:14:57;;;;;;;;;;;;;;;3.63;100.00;99545.25;5124167;28;19924;-63
2023/01/25 00:17:24;;;;;;;;;;;;;;;3.68;100.00;99547.38;5094140;28;19966;-62
2023/01/25 00:19:50;;;;;;;;;;;;;;;3.46;100.00;99553.50;5120372;28;19924;-62
2023/01/25 00:22:16;;;;;;;;;;;;;;;3.46;100.00;99553.50;5122825;28;19946;-62
2023/01/25 00:24:43;;;;;;;;;;;;;;;3.75;100.00;99551.75;5123695;28;19920;-62
2023/01/25 00:27:09;;;;;;;;;;;;;;;3.41;100.00;99546.09;5103817;28;19924;-62
2023/01/25 00:29:36;;;;;;;;;;;;;;;3.40;100.00;99539.19;5101908;28;19962;-62
2023/01/25 00:32:08;;;;;;;;;;;;;;;3.47;100.00;99541.91;5102407;28;19968;-62
2023/01/25 00:34:38;;;;;;;;;;;;;;;3.41;100.00;99545.28;5122759;28;19924;-62
2023/01/25 00:37:12;;;;;;;;;;;;;;;3.50;100.00;99539.75;5101907;28;19928;-62
2023/01/25 00:39:38;;;;;;;;;;;;;;;3.31;100.00;99540.25;5102007;28;19963;-62
2023/01/25 00:42:05;;;;;;;;;;;;;;;3.58;100.00;99537.06;5120738;28;19928;-62
2023/01/25 00:44:31;;;;;;;;;;;;;;;3.57;100.00;99529.28;5123492;28;19943;-62
2023/01/25 00:46:58;;;;;;;;;;;;;;;3.49;100.00;99532.03;5123219;28;19983;-62
2023/01/25 00:49:26;;;;;;;;;;;;;;;3.22;100.00;99528.09;5108904;28;19924;-62
2023/01/25 00:51:54;;;;;;;;;;;;;;;3.23;100.00;99522.66;5101647;28;19931;-62
2023/01/25 00:54:21;;;;;;;;;;;;;;;3.28;100.00;99526.59;5122777;28;19924;-62
2023/01/25 00:56:48;;;;;;;;;;;;;;;3.02;100.00;99530.41;5123330;28;19955;-62
2023/01/25 00:59:14;;;;;;;;;;;;;;;3.30;100.00;99521.94;5120845;28;19935;-62
2023/01/25 01:01:41;;;;;;;;;;;;;;;3.20;100.00;99528.28;5119691;28;19935;-62
2023/01/25 01:04:08;;;;;;;;;;;;;;;3.32;100.00;99525.22;5120737;28;19924;-62
2023/01/25 01:06:36;;;;;;;;;;;;;;;3.11;100.00;99531.97;5118968;28;19919;-62
2023/01/25 01:09:03;;;;;;;;;;;;;;;2.99;100.00;99525.47;5122295;28;19956;-62
2023/01/25 01:11:30;;;;;;;;;;;;;;;2.76;100.00;99535.16;5119432;28;19920;-62
2023/01/25 01:13:56;;;;;;;;;;;;;;;2.72;100.00;99539.16;5119568;28;19992;-62
2023/01/25 01:16:23;;;;;;;;;;;;;;;2.62;100.00;99528.00;5123052;28;19961;-61
2023/01/25 01:18:50;;;;;;;;;;;;;;;2.90;100.00;99539.72;5122779;28;19955;-62
2023/01/25 01:21:16;;;;;;;;;;;;;;;2.65;100.00;99539.03;5120301;28;19931;-62
2023/01/25 01:23:44;;;;;;;;;;;;;;;2.58;100.00;99542.50;5119620;28;19956;-62
2023/01/25 01:26:12;;;;;;;;;;;;;;;2.90;100.00;99549.44;5120929;28;19952;-62
2023/01/25 01:28:39;;;;;;;;;;;;;;;2.83;100.00;99540.56;5122944;28;19920;-62
2023/01/25 01:31:06;;;;;;;;;;;;;;;2.77;100.00;99547.38;5121789;28;19928;-62
2023/01/25 01:33:32;;;;;;;;;;;;;;;2.54;100.00;99551.75;5119530;28;19931;-62
2023/01/25 01:35:59;;;;;;;;;;;;;;;2.65;100.00;99543.47;5115262;28;20411;-62
2023/01/25 01:38:25;;;;;;;;;;;;;;;2.55;100.00;99551.59;5122953;28;19967;-62
2023/01/25 01:40:53;;;;;;;;;;;;;;;2.81;100.00;99538.13;5122588;28;19927;-62
2023/01/25 01:43:20;;;;;;;;;;;;;;;2.58;100.00;99547.78;5119426;28;19979;-62
2023/01/25 01:45:54;;;;;;;;;;;;;;;2.54;100.00;99547.31;5118895;28;20493;-62
2023/01/25 01:48:24;;;;;;;;;;;;;;;2.67;100.00;99542.28;5122034;28;19963;-62
2023/01/25 01:50:52;;;;;;;;;;;;;;;2.48;100.00;99545.34;5104571;28;19968;-62
2023/01/25 01:53:19;;;;;;;;;;;;;;;2.49;100.00;99548.81;5119444;28;19927;-62
2023/01/25 01:55:45;;;;;;;;;;;;;;;2.54;100.00;99534.13;5118929;28;19987;-62
2023/01/25 01:58:13;;;;;;;;;;;;;;;2.46;100.00;99549.16;5102674;28;20011;-62
2023/01/25 02:00:41;;;;;;;;;;;;;;;2.83;100.00;99533.47;5122519;28;19999;-62
2023/01/25 02:03:08;;;;;;;;;;;;;;;2.82;100.00;99534.47;5121217;28;19963;-62
2023/01/25 02:05:39;;;;;;;;;;;;;;;2.74;100.00;99545.06;5114635;28;19924;-62
2023/01/25 02:08:06;;;;;;;;;;;;;;;2.64;100.00;99544.44;5119876;28;19928;-62
2023/01/25 02:10:33;;;;;;;;;;;;;;;2.82;100.00;99542.38;5122237;28;19990;-62
2023/01/25 02:12:59;;;;;;;;;;;;;;;2.68;100.00;99543.94;5122044;28;19923;-62
2023/01/25 02:15:32;;;;;;;;;;;;;;;2.76;100.00;99535.16;5118616;28;19931;-62
2023/01/25 02:17:58;;;;;;;;;;;;;;;2.69;100.00;99539.50;5118611;28;19921;-62
2023/01/25 02:20:27;;;;;;;;;;;;;;;2.56;100.00;99537.41;5105690;28;19955;-62
2023/01/25 02:22:59;;;;;;;;;;;;;;;2.86;100.00;99535.75;5114526;28;19928;-62
2023/01/25 02:25:27;;;;;;;;;;;;;;;2.91;100.00;99537.91;5110137;28;19971;-62
2023/01/25 02:27:55;;;;;;;;;;;;;;;2.63;100.00;99535.72;5118484;28;19931;-62
2023/01/25 02:30:22;;;;;;;;;;;;;;;2.47;100.00;99535.00;5121602;28;19935;-62
2023/01/25 02:32:48;;;;;;;;;;;;;;;2.47;100.00;99546.38;5121820;28;19967;-62
2023/01/25 02:35:19;;;;;;;;;;;;;;;2.71;100.00;99537.50;5115116;28;19991;-62
2023/01/25 02:37:46;;;;;;;;;;;;;;;2.61;100.00;99537.72;5118154;28;20556;-62
2023/01/25 02:40:12;;;;;;;;;;;;;;;2.84;100.00;99542.22;5120011;28;19952;-62
2023/01/25 02:42:42;;;;;;;;;;;;;;;2.72;100.00;99547.06;5121858;28;19945;-62
2023/01/25 02:45:09;;;;;;;;;;;;;;;2.71;100.00;99537.50;5120222;28;19977;-62
2023/01/25 02:47:36;;;;;;;;;;;;;;;2.72;100.00;99541.78;5118344;28;19924;-62
2023/01/25 02:50:02;;;;;;;;;;;;;;;2.88;100.00;99538.25;5118684;28;20375;-62
2023/01/25 02:52:28;;;;;;;;;;;;;;;2.87;100.00;99537.41;5121687;28;19959;-62
2023/01/25 02:54:55;;;;;;;;;;;;;;;3.07;100.00;99546.50;5121599;28;19958;-62
2023/01/25 02:57:21;;;;;;;;;;;;;;;3.10;100.00;99530.31;5118299;28;19991;-62
2023/01/25 02:59:49;;;;;;;;;;;;;;;3.04;100.00;99544.22;5118008;28;19935;-62
2023/01/25 03:02:15;;;;;;;;;;;;;;;2.89;100.00;99534.59;5120168;28;19924;-61
2023/01/25 03:04:41;;;;;;;;;;;;;;;2.73;100.00;99535.50;5119676;28;19974;-61
2023/01/25 03:07:08;;;;;;;;;;;;;;;2.68;100.00;99538.69;5118085;28;19919;-61
2023/01/25 03:09:34;;;;;;;;;;;;;;;2.75;100.00;99536.19;5100052;28;19924;-61
2023/01/25 03:12:00;;;;;;;;;;;;;;;3.00;100.00;99535.00;5118239;28;19986;-62
2023/01/25 03:14:27;;;;;;;;;;;;;;;2.96;100.00;99525.00;5121513;28;19928;-62
2023/01/25 03:16:55;;;;;;;;;;;;;;;3.11;100.00;99524.06;5121977;28;19958;-62
2023/01/25 03:19:21;;;;;;;;;;;;;;;3.49;100.00;99517.00;5118449;28;20083;-62
2023/01/25 03:21:47;;;;;;;;;;;;;;;3.55;100.00;99515.47;5118054;28;19928;-62
2023/01/25 03:24:14;;;;;;;;;;;;;;;3.68;100.00;99505.09;5120210;28;19928;-62
2023/01/25 03:29:20;;;;;;;;;;;;;;;3.86;100.00;99502.13;5117105;28;19931;-62
2023/01/25 03:31:47;;;;;;;;;;;;;;;3.85;100.00;99509.22;5117939;28;19935;-62
2023/01/25 03:34:14;;;;;;;;;;;;;;;3.77;100.00;99504.84;5119818;28;19924;-62
2023/01/25 03:36:41;;;;;;;;;;;;;;;3.85;100.00;99490.72;5120592;28;20348;-62
2023/01/25 03:39:07;;;;;;;;;;;;;;;3.79;100.00;99502.00;5123465;28;20015;-62
2023/01/25 03:41:34;;;;;;;;;;;;;;;3.67;100.00;99495.53;5121568;28;19924;-62
2023/01/25 03:44:00;;;;;;;;;;;;;;;3.52;100.00;99489.41;5121562;28;20423;-61
2023/01/25 03:46:26;;;;;;;;;;;;;;;3.17;100.00;99494.31;5124842;28;20003;-61
2023/01/25 03:48:53;;;;;;;;;;;;;;;3.23;100.00;99496.25;5140843;27;19919;-62
2023/01/25 03:51:20;;;;;;;;;;;;;;;3.13;100.00;99500.94;5121979;28;19928;-62
2023/01/25 03:53:47;;;;;;;;;;;;;;;2.99;100.00;99499.06;5121419;28;19963;-62
2023/01/25 03:56:18;;;;;;;;;;;;;;;3.12;100.00;99493.22;5123260;28;19939;-62
2023/01/25 03:58:45;;;;;;;;;;;;;;;3.31;100.00;99503.28;5106832;28;19945;-62
2023/01/25 04:01:11;;;;;;;;;;;;;;;3.43;100.00;99496.59;5122790;28;20003;-62
2023/01/25 04:03:38;;;;;;;;;;;;;;;3.08;100.00;99490.09;5103256;28;19991;-62
2023/01/25 04:06:04;;;;;;;;;;;;;;;3.08;100.00;99489.28;5117752;28;19924;-62
2023/01/25 04:08:32;;;;;;;;;;;;;;;2.87;100.00;99475.91;5124798;28;19928;-61
2023/01/25 04:11:00;;;;;;;;;;;;;;;2.81;100.00;99482.72;5124491;28;19983;-61
2023/01/25 04:13:27;;;;;;;;;;;;;;;3.05;100.00;99482.53;5121220;28;20018;-62
2023/01/25 04:15:54;;;;;;;;;;;;;;;3.24;100.00;99482.06;5120983;28;20094;-60
2023/01/25 04:18:20;;;;;;;;;;;;;;;3.34;100.00;99473.06;5123924;28;20018;-61
2023/01/25 04:20:46;;;;;;;;;;;;;;;3.34;100.00;99465.16;5124247;28;19976;-62
2023/01/25 04:23:13;;;;;;;;;;;;;;;3.19;100.00;99470.34;5122221;28;19941;-61
2023/01/25 04:25:41;;;;;;;;;;;;;;;2.99;100.00;99456.84;5120929;28;20007;-61
2023/01/25 04:28:07;;;;;;;;;;;;;;;3.36;100.00;99452.56;5122078;28;19924;-61
2023/01/25 04:30:33;;;;;;;;;;;;;;;3.31;100.00;99450.47;5124474;28;19998;-62
2023/01/25 04:33:03;;;;;;;;;;;;;;;3.17;100.00;99456.53;5124183;28;19990;-62
2023/01/25 04:35:29;;;;;;;;;;;;;;;2.99;100.00;99442.81;5116555;28;20059;-61
2023/01/25 04:37:56;;;;;;;;;;;;;;;2.99;100.00;99451.56;5120770;28;19962;-62
2023/01/25 04:40:22;;;;;;;;;;;;;;;3.07;100.00;99443.56;5124455;28;19955;-62
2023/01/25 04:42:50;;;;;;;;;;;;;;;3.29;100.00;99436.63;5124185;28;19927;-62
2023/01/25 04:45:16;;;;;;;;;;;;;;;3.36;100.00;99442.00;5121362;28;19959;-62
2023/01/25 04:47:42;;;;;;;;;;;;;;;3.59;100.00;99438.28;5119586;28;19966;-62
2023/01/25 04:50:09;;;;;;;;;;;;;;;3.51;100.00;99434.91;5121492;28;19928;-62
2023/01/25 04:52:35;;;;;;;;;;;;;;;3.45;100.00;99440.94;5123662;28;19951;-62
2023/01/25 04:55:02;;;;;;;;;;;;;;;3.54;100.00;99434.56;5122998;28;19959;-62
2023/01/25 04:57:28;;;;;;;;;;;;;;;3.37;100.00;99438.38;5119986;28;19966;-62
2023/01/25 04:59:56;;;;;;;;;;;;;;;3.20;100.00;99435.06;5119970;28;19946;-62
2023/01/25 05:02:22;;;;;;;;;;;;;;;3.19;100.00;99423.66;5123200;28;19963;-62
2023/01/25 05:04:49;;;;;;;;;;;;;;;3.45;100.00;99431.19;5120461;28;19959;-62
2023/01/25 05:07:15;;;;;;;;;;;;;;;3.53;100.00;99431.09;5119812;28;19962;-62
2023/01/25 05:09:41;;;;;;;;;;;;;;;3.58;100.00;99426.09;5119828;28;19955;-63
2023/01/25 05:12:10;;;;;;;;;;;;;;;3.57;100.00;99424.47;5120832;28;19931;-62
2023/01/25 05:14:37;;;;;;;;;;;;;;;3.55;100.00;99431.75;5123158;28;19924;-62
2023/01/25 05:17:04;;;;;;;;;;;;;;;3.69;100.00;99428.28;5122848;28;19983;-62
2023/01/25 05:19:31;;;;;;;;;;;;;;;3.85;100.00;99427.28;5119703;28;19924;-62
2023/01/25 05:21:57;;;;;;;;;;;;;;;3.96;100.00;99416.25;5119803;28;19924;-62
2023/01/25 05:24:24;;;;;;;;;;;;;;;3.87;100.00;99419.97;5123485;28;19986;-62
2023/01/25 05:27:02;;;;;;;;;;;;;;;3.53;100.00;99411.81;5123281;28;19927;-62
2023/01/25 05:29:29;;;;;;;;;;;;;;;3.64;100.00;99414.00;5112097;28;19931;-62
2023/01/25 05:31:56;;;;;;;;;;;;;;;3.61;100.00;99415.19;5119790;28;19974;-62
2023/01/25 05:34:24;;;;;;;;;;;;;;;3.72;100.00;99412.06;5122707;28;20019;-62
2023/01/25 05:36:51;;;;;;;;;;;;;;;3.90;100.00;99406.41;5118758;28;19927;-63
2023/01/25 05:39:18;;;;;;;;;;;;;;;4.02;100.00;99407.59;5120073;28;19927;-62
2023/01/25 05:41:44;;;;;;;;;;;;;;;3.92;100.00;99407.06;5119303;28;20399;-62
2023/01/25 05:44:10;;;;;;;;;;;;;;;3.91;100.00;99404.59;5120955;28;19982;-62
2023/01/25 05:46:37;;;;;;;;;;;;;;;3.91;100.00;99410.69;5122700;28;19999;-62
2023/01/25 05:49:03;;;;;;;;;;;;;;;3.86;100.00;99404.31;5121850;28;19958;-62
2023/01/25 05:51:31;;;;;;;;;;;;;;;3.72;100.00;99400.69;5119346;28;19959;-62
2023/01/25 05:53:57;;;;;;;;;;;;;;;3.81;100.00;99389.84;5119169;28;19959;-62
2023/01/25 05:56:24;;;;;;;;;;;;;;;3.88;100.00;99392.56;5122528;28;19928;-62
2023/01/25 05:58:52;;;;;;;;;;;;;;;3.93;100.00;99387.53;5121918;28;19931;-62
2023/01/25 06:01:19;;;;;;;;;;;;;;;3.98;100.00;99385.19;5119816;28;19959;-62
2023/01/25 06:03:45;;;;;;;;;;;;;;;4.02;100.00;99390.91;5118991;28;19928;-62
2023/01/25 06:06:11;;;;;;;;;;;;;;;4.02;100.00;99394.38;5116107;28;19931;-62
2023/01/25 06:08:39;;;;;;;;;;;;;;;3.83;100.00;99397.59;5122529;28;19947;-62
2023/01/25 06:11:06;;;;;;;;;;;;;;;3.81;100.00;99396.94;5121456;28;19959;-62
2023/01/25 06:13:33;;;;;;;;;;;;;;;3.68;100.00;99394.13;5118736;28;19920;-62
2023/01/25 06:15:59;;;;;;;;;;;;;;;3.79;100.00;99391.84;5118440;28;19934;-62
2023/01/25 06:18:26;;;;;;;;;;;;;;;3.92;100.00;99390.38;5122096;28;20441;-63
2023/01/25 06:20:52;;;;;;;;;;;;;;;3.90;100.00;99387.09;5122020;28;19959;-62
2023/01/25 06:23:19;;;;;;;;;;;;;;;3.99;100.00;99384.16;5119341;28;19928;-62
2023/01/25 06:25:46;;;;;;;;;;;;;;;4.07;100.00;99380.59;5118542;28;19942;-62
2023/01/25 06:28:13;;;;;;;;;;;;;;;4.16;100.00;99388.22;5120477;28;19932;-62
2023/01/25 06:30:39;;;;;;;;;;;;;;;4.16;100.00;99390.88;5122111;28;19928;-62
2023/01/25 06:33:05;;;;;;;;;;;;;;;4.03;100.00;99390.72;5120943;28;19954;-62
2023/01/25 06:35:32;;;;;;;;;;;;;;;4.10;100.00;99390.81;5114195;28;19953;-62
2023/01/25 06:37:59;;;;;;;;;;;;;;;3.96;100.00;99394.28;5118535;28;20015;-62
2023/01/25 06:40:26;;;;;;;;;;;;;;;3.95;100.00;99392.66;5110280;28;19963;-62
2023/01/25 06:42:54;;;;;;;;;;;;;;;3.68;100.00;99412.63;5118392;28;19963;-62
2023/01/25 06:45:20;;;;;;;;;;;;;;;3.83;100.00;99399.41;5121421;28;19934;-62
2023/01/25 06:47:48;;;;;;;;;;;;;;;3.95;100.00;99398.75;5121783;28;19963;-62
2023/01/25 06:50:15;;;;;;;;;;;;;;;4.04;100.00;99402.94;5119253;28;19924;-62
2023/01/25 06:52:41;;;;;;;;;;;;;;;3.95;100.00;99395.28;5118319;28;19946;-62
2023/01/25 06:55:12;;;;;;;;;;;;;;;3.86;100.00;99402.50;5119378;28;19987;-62
2023/01/25 06:57:39;;;;;;;;;;;;;;;3.63;100.00;99399.94;5121803;28;19945;-62
2023/01/25 07:00:07;;;;;;;;;;;;;;;3.45;100.00;99399.50;5120714;28;19987;-62
2023/01/25 07:02:34;;;;;;;;;;;;;;;3.45;100.00;99398.66;5118057;28;19959;-62
2023/01/25 07:05:00;;;;;;;;;;;;;;;3.23;100.00;99393.28;5118011;28;19928;-62
2023/01/25 07:07:30;;;;;;;;;;;;;;;3.15;100.00;99392.53;5118153;28;19935;-62
2023/01/25 07:09:57;;;;;;;;;;;;;;;3.04;100.00;99401.69;5119103;28;19924;-61
2023/01/25 07:12:24;;;;;;;;;;;;;;;3.39;100.00;99396.75;5125407;28;19927;-62
2023/01/25 07:14:51;;;;;;;;;;;;;;;3.44;100.00;99394.38;5125819;28;19928;-62
2023/01/25 07:17:19;;;;;;;;;;;;;;;3.33;100.00;99392.19;5123078;28;19931;-62
2023/01/25 07:19:45;;;;;;;;;;;;;;;3.35;100.00;99387.53;5121943;28;19924;-62
2023/01/25 07:22:12;;;;;;;;;;;;;;;3.45;100.00;99386.28;5123729;28;19924;-62
2023/01/25 07:24:38;;;;;;;;;;;;;;;3.30;100.00;99389.91;5125757;28;20000;-62
2023/01/25 07:27:04;;;;;;;;;;;;;;;3.13;100.00;99390.06;5124591;28;19923;-63
2023/01/25 07:29:31;;;;;;;;;;;;;;;3.02;100.00;99390.50;5121652;28;19924;-63
2023/01/25 07:31:57;;;;;;;;;;;;;;;3.14;100.00;99386.44;5121627;28;19963;-63
2023/01/25 07:34:26;;;;;;;;;;;;;;;3.20;100.00;99380.44;5124660;28;19928;-63
2023/01/25 07:36:52;;;;;;;;;;;;;;;2.96;100.00;99383.31;5102472;28;19975;-63
2023/01/25 07:39:19;;;;;;;;;;;;;;;2.80;100.00;99380.81;5122226;28;20026;-63
2023/01/25 07:41:45;;;;;;;;;;;;;;;2.85;100.00;99380.28;5121433;28;19963;-63
2023/01/25 07:44:11;;;;;;;;;;;;;;;2.86;100.00;99390.66;5123040;28;19967;-63
2023/01/25 07:46:38;;;;;;;;;;;;;;;2.73;100.00;99382.50;5125237;28;19924;-63
2023/01/25 07:49:04;;;;;;;;;;;;;;;2.92;100.00;99383.81;5124023;28;20030;-62
2023/01/25 07:51:32;;;;;;;;;;;;;;;2.98;100.00;99385.75;5121668;28;19959;-62
2023/01/25 07:54:00;;;;;;;;;;;;;;;2.99;100.00;99388.22;5121603;28;19967;-62
2023/01/25 07:56:27;;;;;;;;;;;;;;;2.88;100.00;99380.72;5113236;28;20708;-62
2023/01/25 07:58:54;;;;;;;;;;;;;;;2.94;100.00;99385.28;5121407;28;19965;-62
2023/01/25 08:01:21;;;;;;;;;;;;;;;2.86;100.00;99382.72;5124291;28;19963;-62
2023/01/25 08:03:48;;;;;;;;;;;;;;;2.97;100.00;99387.56;5124791;28;19919;-62
2023/01/25 08:06:15;;;;;;;;;;;;;;;2.82;100.00;99378.78;5115947;28;19924;-62
2023/01/25 08:08:44;;;;;;;;;;;;;;;2.70;100.00;99382.84;5124622;28;19935;-62
2023/01/25 08:11:13;;;;;;;;;;;;;;;2.41;100.00;99382.75;5123163;28;19970;-62
2023/01/25 08:13:39;;;;;;;;;;;;;;;2.56;100.00;99386.28;5121041;28;19924;-62
2023/01/25 08:16:06;;;;;;;;;;;;;;;2.80;100.00;99385.25;5121984;28;19975;-62
2023/01/25 08:18:33;;;;;;;;;;;;;;;3.06;100.00;99381.25;5124315;28;19973;-62
2023/01/25 08:21:00;;;;;;;;;;;;;;;3.28;100.00;99370.81;5123782;28;19981;-62
2023/01/25 08:23:28;;;;;;;;;;;;;;;3.23;100.00;99379.25;5120078;28;19924;-62
2023/01/25 08:25:56;;;;;;;;;;;;;;;2.86;100.00;99382.72;5120627;28;19924;-62
2023/01/25 08:28:22;;;;;;;;;;;;;;;2.73;100.00;99388.59;5123808;28;19934;-62
2023/01/25 08:30:49;;;;;;;;;;;;;;;2.75;100.00;99380.53;5124200;28;19975;-63
2023/01/25 08:33:15;;;;;;;;;;;;;;;2.49;100.00;99390.59;5121587;28;19931;-63
2023/01/25 08:35:41;;;;;;;;;;;;;;;2.57;100.00;99379.97;5116249;28;19998;-63
2023/01/25 08:38:08;;;;;;;;;;;;;;;2.56;100.00;99381.00;5121548;28;19920;-62
2023/01/25 08:40:34;;;;;;;;;;;;;;;2.86;100.00;99377.44;5123919;28;20044;-62
2023/01/25 08:43:02;;;;;;;;;;;;;;;3.05;100.00;99376.97;5123633;28;19951;-62
2023/01/25 08:45:33;;;;;;;;;;;;;;;3.15;100.00;99374.88;5120190;28;19942;-62
2023/01/25 08:47:59;;;;;;;;;;;;;;;2.97;100.00;99379.66;5120401;28;19984;-62
2023/01/25 08:50:25;;;;;;;;;;;;;;;2.99;100.00;99371.56;5105637;28;19950;-62
2023/01/25 08:52:52;;;;;;;;;;;;;;;2.93;100.00;99372.28;5123753;28;19983;-62
2023/01/25 08:55:18;;;;;;;;;;;;;;;2.86;100.00;99374.81;5120849;28;19983;-62
2023/01/25 08:57:45;;;;;;;;;;;;;;;2.78;100.00;99368.78;5119866;28;19935;-62
2023/01/25 09:00:13;;;;;;;;;;;;;;;2.66;100.00;99371.03;5121445;28;19963;-62
2023/01/25 09:02:40;;;;;;;;;;;;;;;2.75;100.00;99372.59;5123621;28;19924;-62
2023/01/25 09:05:06;;;;;;;;;;;;;;;3.04;100.00;99370.03;5117925;28;19984;-63
2023/01/25 09:07:37;;;;;;;;;;;;;;;3.38;100.00;99366.06;5119828;28;19983;-62
2023/01/25 09:10:03;;;;;;;;;;;;;;;3.56;100.00;99371.81;5120252;28;20006;-62
2023/01/25 09:12:30;;;;;;;;;;;;;;;3.33;100.00;99353.41;5123193;28;19928;-62
2023/01/25 09:14:57;;;;;;;;;;;;;;;3.15;100.00;99363.50;5123371;28;19920;-62
2023/01/25 09:17:24;;;;;;;;;;;;;;;3.05;100.00;99362.94;5119892;28;20323;-63
2023/01/25 09:19:51;;;;;;;;;;;;;;;3.23;100.00;99352.84;5119690;28;19968;-63
2023/01/25 09:22:17;;;;;;;;;;;;;;;3.48;100.00;99358.69;5122185;28;19992;-62
2023/01/25 09:24:43;;;;;;;;;;;;;;;3.14;100.00;99354.75;5123213;28;20010;-62
2023/01/25 09:27:10;;;;;;;;;;;;;;;3.21;100.00;99353.03;5121440;28;19923;-62
2023/01/25 09:29:36;;;;;;;;;;;;;;;3.17;100.00;99351.75;5119725;28;19991;-62
2023/01/25 09:32:03;;;;;;;;;;;;;;;3.21;100.00;99358.31;5119958;28;19992;-62
2023/01/25 09:34:30;;;;;;;;;;;;;;;3.03;100.00;99352.53;5122681;28;19930;-62
2023/01/25 09:36:57;;;;;;;;;;;;;;;2.95;100.00;99349.16;5115141;28;19923;-62
2023/01/25 09:39:23;;;;;;;;;;;;;;;3.12;100.00;99350.66;5119672;28;19920;-61
2023/01/25 09:42:04;;;;;;;;;;;;;;;2.85;100.00;99349.41;5119534;28;19999;-62
2023/01/25 09:44:39;;;;;;;;;;;;;;;2.69;100.00;99349.59;5111844;28;19959;-63
2023/01/25 09:47:11;;;;;;;;;;;;;;;2.74;100.00;99352.50;5119921;28;19959;-63
2023/01/25 09:49:56;;;;;;;;;;;;;;;2.71;100.00;99347.56;5122516;28;19977;-63
2023/01/25 09:52:30;;;;;;;;;;;;;;;2.77;100.00;99346.03;5119360;28;19935;-63
2023/01/25 09:54:57;;;;;;;;;;;;;;;2.61;100.00;99347.00;5119171;28;19927;-63
2023/01/25 09:57:26;;;;;;;;;;;;;;;2.83;100.00;99346.16;5122499;28;19963;-63
2023/01/25 09:59:53;;;;;;;;;;;;;;;2.75;100.00;99346.22;5122634;28;19928;-63
2023/01/25 10:02:30;;;;;;;;;;;;;;;2.84;100.00;99342.53;5119562;28;20003;-63
2023/01/25 10:05:02;;;;;;;;;;;;;;;2.89;100.00;99341.97;5119035;28;19928;-63
2023/01/25 10:07:30;;;;;;;;;;;;;;;3.04;100.00;99333.06;5111140;28;19939;-63
2023/01/25 10:10:00;;;;;;;;;;;;;;;2.86;100.00;99340.50;5118966;28;19931;-63
2023/01/25 10:12:28;;;;;;;;;;;;;;;2.61;100.00;99320.63;5089253;28;19924;-63
2023/01/25 10:14:54;;;;;;;;;;;;;;;2.54;100.00;99325.78;5114573;28;20295;-63
2023/01/25 10:17:26;;;;;;;;;;;;;;;2.52;100.00;99319.03;5121698;28;19966;-62
2023/01/25 10:20:01;;;;;;;;;;;;;;;2.86;100.00;99318.56;5122202;28;19966;-62
2023/01/25 10:22:29;;;;;;;;;;;;;;;2.62;100.00;99312.53;5110654;28;19950;-62
2023/01/25 10:25:03;;;;;;;;;;;;;;;2.52;100.00;99311.13;5119081;28;19924;-63
2023/01/25 10:27:36;;;;;;;;;;;;;;;2.47;100.00;99309.03;5111317;28;19955;-62
2023/01/25 10:30:14;;;;;;;;;;;;;;;2.62;100.00;99309.06;5100964;28;19955;-63
2023/01/25 10:32:40;;;;;;;;;;;;;;;2.43;100.00;99304.28;5122270;28;19926;-62
2023/01/25 10:35:14;;;;;;;;;;;;;;;2.39;100.00;99298.53;5116815;28;20382;-62
2023/01/25 10:37:42;;;;;;;;;;;;;;;2.49;100.00;99296.50;5118784;28;19987;-62
2023/01/25 10:40:14;;;;;;;;;;;;;;;2.51;100.00;99291.84;5120434;28;19975;-61
2023/01/25 10:42:44;;;;;;;;;;;;;;;2.93;100.00;99283.38;5122411;28;19930;-63
2023/01/25 10:45:11;;;;;;;;;;;;;;;3.25;100.00;99276.91;5120227;28;19981;-63
2023/01/25 10:47:40;;;;;;;;;;;;;;;3.54;100.00;99265.50;5118883;28;19928;-62
2023/01/25 10:50:07;;;;;;;;;;;;;;;3.51;100.00;99271.16;5119607;28;19992;-62
2023/01/25 10:52:36;;;;;;;;;;;;;;;3.34;100.00;99264.47;5122315;28;19924;-62
2023/01/25 10:55:15;;;;;;;;;;;;;;;3.30;100.00;99264.00;5121759;28;19928;-62
2023/01/25 10:57:43;;;;;;;;;;;;;;;3.21;100.00;99251.91;5118710;28;19952;-62
2023/01/25 11:00:19;;;;;;;;;;;;;;;3.31;100.00;99251.63;5119819;28;19928;-62
2023/01/25 11:02:46;;;;;;;;;;;;;;;3.38;100.00;99244.59;5122228;28;19951;-62
2023/01/25 11:05:24;;;;;;;;;;;;;;;3.41;100.00;99247.69;5115624;28;19970;-62
2023/01/25 11:07:51;;;;;;;;;;;;;;;3.47;100.00;99249.59;5118565;28;19960;-63
2023/01/25 11:10:27;;;;;;;;;;;;;;;3.39;100.00;99240.94;5120977;28;19956;-62
2023/01/25 11:13:11;;;;;;;;;;;;;;;3.31;100.00;99244.53;5121900;28;19965;-62
2023/01/25 11:15:38;;;;;;;;;;;;;;;3.41;100.00;99234.47;5111827;28;19924;-62
2023/01/25 11:18:05;;;;;;;;;;;;;;;3.34;100.00;99230.97;5118897;28;19956;-63
2023/01/25 11:20:31;;;;;;;;;;;;;;;3.35;100.00;99223.84;5121819;28;19919;-62
2023/01/25 11:22:57;;;;;;;;;;;;;;;3.11;100.00;99217.88;5121977;28;19966;-67
2023/01/25 11:25:25;;;;;;;;;;;;;;;3.34;100.00;99219.56;5118135;28;19971;-62
2023/01/25 11:28:09;;;;;;;;;;;;;;;3.34;100.00;99216.94;5118563;28;19942;-62
2023/01/25 11:30:36;;;;;;;;;;;;;;;3.39;100.00;99214.53;5111734;28;19928;-62
2023/01/25 11:33:02;;;;;;;;;;;;;;;3.54;100.00;99210.03;5118851;28;19935;-62
2023/01/25 11:35:32;;;;;;;;;;;;;;;3.47;100.00;99195.94;5117770;28;19924;-61
2023/01/25 11:38:05;;;;;;;;;;;;;;;3.24;100.00;99204.00;5100291;28;19920;-62
2023/01/25 11:40:37;;;;;;;;;;;;;;;3.34;100.00;99201.91;5110889;28;19928;-62
2023/01/25 11:43:13;;;;;;;;;;;;;;;3.24;100.00;99196.09;5118932;28;19962;-62
2023/01/25 11:45:55;;;;;;;;;;;;;;;3.15;100.00;99195.38;5121995;28;19924;-62
2023/01/25 11:48:30;;;;;;;;;;;;;;;3.43;100.00;99192.06;5118636;28;19924;-62
2023/01/25 11:51:02;;;;;;;;;;;;;;;3.24;100.00;99183.72;5117977;28;19950;-62
2023/01/25 11:53:41;;;;;;;;;;;;;;;3.53;100.00;99174.88;5109926;28;19920;-63
2023/01/25 11:56:13;;;;;;;;;;;;;;;3.34;100.00;99175.50;5118754;28;19931;-62
2023/01/25 11:58:46;;;;;;;;;;;;;;;3.52;100.00;99161.88;5124518;28;19930;-62
2023/01/25 12:01:15;;;;;;;;;;;;;;;3.53;100.00;99168.81;5123019;28;20648;-62
2023/01/25 12:04:00;;;;;;;;;;;;;;;3.26;100.00;99165.88;5121226;28;19924;-62
2023/01/25 12:06:31;;;;;;;;;;;;;;;2.96;100.00;99143.16;5112913;28;19943;-62
2023/01/25 12:09:04;;;;;;;;;;;;;;;3.12;100.00;99152.69;5124882;28;20654;-62
2023/01/25 12:11:46;;;;;;;;;;;;;;;3.41;100.00;99136.78;5113721;28;19920;-62
2023/01/25 12:14:19;;;;;;;;;;;;;;;3.25;100.00;99132.53;5122572;28;20798;-62
2023/01/25 12:16:53;;;;;;;;;;;;;;;3.12;100.00;99131.59;5124615;28;20402;-62
2023/01/25 12:19:27;;;;;;;;;;;;;;;3.15;100.00;99128.56;5121452;28;19931;-62
2023/01/25 12:22:02;;;;;;;;;;;;;;;3.32;100.00;99126.50;5121050;28;19924;-62
2023/01/25 12:24:36;;;;;;;;;;;;;;;3.63;100.00;99127.84;5113075;28;19920;-62
2023/01/25 12:27:07;;;;;;;;;;;;;;;3.47;100.00;99122.81;5121145;28;19991;-62
2023/01/25 12:29:38;;;;;;;;;;;;;;;3.31;100.00;99112.50;5124153;28;19932;-61
2023/01/25 12:32:07;;;;;;;;;;;;;;;3.03;100.00;99109.75;5123369;28;19924;-62
2023/01/25 12:34:35;;;;;;;;;;;;;;;2.85;100.00;99104.03;5120591;28;19924;-62
2023/01/25 12:37:06;;;;;;;;;;;;;;;2.86;100.00;99100.41;5120499;28;19930;-62
2023/01/25 12:39:34;;;;;;;;;;;;;;;2.87;100.00;99086.22;5120463;28;19925;-62
2023/01/25 12:42:04;;;;;;;;;;;;;;;2.88;100.00;99085.22;5120484;28;19928;-62
2023/01/25 12:44:33;;;;;;;;;;;;;;;3.05;100.00;99094.56;5105895;28;19927;-61
2023/01/25 12:47:05;;;;;;;;;;;;;;;2.92;100.00;99083.03;5124107;28;19923;-61
2023/01/25 12:49:34;;;;;;;;;;;;;;;2.97;100.00;99081.47;5095361;28;19924;-63
2023/01/25 12:52:04;;;;;;;;;;;;;;;2.86;100.00;99081.13;5120741;28;19928;-62
2023/01/25 12:54:33;;;;;;;;;;;;;;;2.96;100.00;99071.94;5124152;28;19928;-62